createdAt,value
2023-04-27T00:02:44.545Z,11.53
2023-04-27T00:05:57.312Z,12.03
2023-04-27T00:09:10.103Z,12.60
2023-04-27T00:12:22.615Z,12.50
2023-04-27T00:15:35.056Z,14.83
2023-04-27T00:18:47.131Z,15.93
2023-04-27T00:22:00.661Z,15.00
2023-04-27T00:25:14.968Z,15.58
2023-04-27T00:28:27.550Z,15.35
2023-04-27T00:31:39.690Z,15.65
2023-04-27T00:34:52.480Z,16.70
2023-04-27T00:38:04.580Z,15.73
2023-04-27T00:41:18.644Z,15.53
2023-04-27T00:44:34.715Z,14.88
2023-04-27T00:47:48.762Z,15.55
2023-04-27T00:51:01.175Z,16.08
2023-04-27T00:54:13.713Z,16.40
2023-04-27T00:57:26.631Z,15.95
2023-04-27T01:00:41.882Z,15.85
2023-04-27T01:03:55.132Z,16.28
2023-04-27T01:07:08.455Z,16.30
2023-04-27T01:10:20.675Z,16.73
2023-04-27T01:13:33.272Z,16.38
2023-04-27T01:16:47.551Z,16.50
2023-04-27T01:20:02.744Z,16.60
2023-04-27T01:23:16.770Z,15.65
2023-04-27T01:26:28.964Z,16.45
2023-04-27T01:29:41.451Z,17.13
2023-04-27T01:32:54.775Z,16.18
2023-04-27T01:36:07.241Z,16.68
2023-04-27T01:39:19.306Z,16.63
2023-04-27T01:42:31.450Z,15.63
2023-04-27T01:45:43.599Z,15.55
2023-04-27T01:48:55.657Z,15.45
2023-04-27T01:52:08.160Z,14.60
2023-04-27T01:55:20.621Z,15.85
2023-04-27T01:58:34.022Z,15.13
2023-04-27T02:01:46.274Z,15.38
2023-04-27T02:04:58.745Z,16.23
2023-04-27T02:08:11.953Z,17.33
2023-04-27T02:11:24.257Z,15.85
2023-04-27T02:14:36.383Z,16.63
2023-04-27T02:17:48.648Z,15.38
2023-04-27T02:21:01.106Z,17.20
2023-04-27T02:24:15.547Z,17.18
2023-04-27T02:27:29.978Z,17.80
2023-04-27T02:30:44.923Z,18.05
2023-04-27T02:33:58.151Z,16.45
2023-04-27T02:37:10.685Z,15.90
2023-04-27T02:40:22.986Z,16.38
2023-04-27T02:43:35.145Z,15.30
2023-04-27T02:46:49.347Z,16.35
2023-04-27T02:50:02.209Z,16.63
2023-04-27T02:53:16.743Z,17.25
2023-04-27T02:56:28.961Z,16.88
2023-04-27T02:59:41.193Z,16.73
2023-04-27T03:02:53.716Z,15.10
2023-04-27T03:06:06.121Z,15.00
2023-04-27T03:09:18.412Z,16.03
2023-04-27T03:12:30.686Z,16.68
2023-04-27T03:15:46.069Z,16.88
2023-04-27T03:18:58.217Z,16.20
2023-04-27T03:22:10.586Z,16.30
2023-04-27T03:25:22.946Z,17.68
2023-04-27T03:28:35.295Z,15.65
2023-04-27T03:31:47.593Z,15.60
2023-04-27T03:34:59.765Z,16.38
2023-04-27T03:38:11.982Z,15.98
2023-04-27T03:41:24.153Z,16.75
2023-04-27T03:44:37.701Z,15.88
2023-04-27T03:47:50.048Z,14.80
2023-04-27T03:51:03.784Z,15.33
2023-04-27T03:54:16.103Z,15.23
2023-04-27T03:57:28.254Z,16.03
2023-04-27T04:00:41.106Z,15.70
2023-04-27T04:03:53.546Z,16.03
2023-04-27T04:07:06.226Z,15.93
2023-04-27T04:10:19.163Z,14.70
2023-04-27T04:13:33.205Z,15.20
2023-04-27T04:16:45.415Z,14.45
2023-04-27T04:19:58.532Z,14.20
2023-04-27T04:23:12.482Z,14.90
2023-04-27T04:26:25.094Z,15.03
2023-04-27T04:29:37.816Z,15.65
2023-04-27T04:32:50.149Z,14.85
2023-04-27T04:36:03.473Z,13.83
2023-04-27T04:39:16.778Z,12.08
2023-04-27T04:42:29.527Z,14.08
2023-04-27T04:45:42.357Z,15.03
2023-04-27T04:48:55.379Z,15.25
2023-04-27T04:52:08.344Z,15.30
2023-04-27T04:55:20.764Z,14.75
2023-04-27T04:58:32.824Z,13.40
2023-04-27T05:01:45.152Z,13.70
2023-04-27T05:04:57.958Z,14.15
2023-04-27T05:08:11.151Z,13.43
2023-04-27T05:11:23.470Z,14.33
2023-04-27T05:14:35.603Z,14.65
2023-04-27T05:17:47.881Z,17.10
2023-04-27T05:21:00.028Z,15.60
2023-04-27T05:24:13.524Z,15.05
2023-04-27T05:27:25.668Z,14.40
2023-04-27T05:30:37.939Z,15.70
2023-04-27T05:33:50.352Z,15.38
2023-04-27T05:37:02.558Z,16.03
2023-04-27T05:40:17.375Z,16.30
2023-04-27T05:43:30.205Z,16.75
2023-04-27T05:46:43.171Z,17.38
2023-04-27T05:49:59.398Z,15.33
2023-04-27T05:53:12.027Z,16.70
2023-04-27T05:56:24.404Z,17.53
2023-04-27T05:59:36.564Z,17.28
2023-04-27T06:02:48.957Z,16.18
2023-04-27T06:06:04.912Z,16.25
2023-04-27T06:09:17.011Z,15.73
2023-04-27T06:12:29.219Z,16.33
2023-04-27T06:15:41.766Z,14.93
2023-04-27T06:18:56.633Z,14.73
2023-04-27T06:22:08.773Z,15.18
2023-04-27T06:25:20.815Z,13.98
2023-04-27T06:28:34.211Z,14.23
2023-04-27T06:31:47.610Z,13.28
2023-04-27T06:34:59.809Z,12.93
2023-04-27T06:38:12.622Z,13.08
2023-04-27T06:41:24.809Z,11.73
2023-04-27T06:44:36.877Z,11.05
2023-04-27T06:47:49.271Z,11.55
2023-04-27T06:51:01.603Z,11.23
2023-04-27T06:54:14.516Z,11.25
2023-04-27T06:57:27.381Z,16.25
2023-04-27T07:00:40.508Z,18.63
2023-04-27T07:03:53.089Z,11.40
2023-04-27T07:07:05.946Z,10.55
2023-04-27T07:10:18.557Z,11.25
2023-04-27T07:13:30.984Z,8.15
2023-04-27T07:16:44.526Z,9.63
2023-04-27T07:19:56.688Z,9.55
2023-04-27T07:23:09.342Z,10.70
2023-04-27T07:26:21.759Z,9.85
2023-04-27T07:29:34.310Z,9.63
2023-04-27T07:32:48.474Z,9.33
2023-04-27T07:36:02.347Z,8.63
2023-04-27T07:39:15.053Z,8.40
2023-04-27T07:42:28.009Z,7.90
2023-04-27T07:45:41.867Z,9.15
2023-04-27T07:48:55.582Z,6.23
2023-04-27T07:52:08.712Z,9.23
2023-04-27T07:55:21.745Z,6.23
2023-04-27T07:58:33.847Z,5.70
2023-04-27T08:01:45.947Z,5.20
2023-04-27T08:04:58.938Z,5.58
2023-04-27T08:08:11.962Z,4.50
2023-04-27T08:11:24.140Z,4.95
2023-04-27T08:14:36.749Z,5.95
2023-04-27T08:17:49.374Z,4.83
2023-04-27T08:21:01.925Z,7.08
2023-04-27T08:24:15.001Z,5.10
2023-04-27T08:27:27.182Z,4.38
2023-04-27T08:30:39.755Z,6.20
2023-04-27T08:33:52.633Z,5.15
2023-04-27T08:37:04.737Z,5.10
2023-04-27T08:40:20.128Z,4.25
2023-04-27T08:43:39.907Z,3.73
2023-04-27T08:46:52.220Z,4.03
2023-04-27T08:50:05.826Z,4.63
2023-04-27T08:53:27.028Z,5.00
2023-04-27T08:56:39.778Z,4.38
2023-04-27T09:00:06.497Z,4.80
2023-04-27T09:03:29.049Z,5.53
2023-04-27T09:06:42.054Z,5.40
2023-04-27T09:09:54.740Z,4.93
2023-04-27T09:13:07.749Z,4.68
2023-04-27T09:16:21.218Z,4.45
2023-04-27T09:19:36.772Z,4.40
2023-04-27T09:22:55.294Z,4.15
2023-04-27T09:26:09.915Z,3.95
2023-04-27T09:29:22.145Z,5.78
2023-04-27T09:32:34.420Z,3.95
2023-04-27T09:35:48.322Z,4.10
2023-04-27T09:39:01.159Z,3.55
2023-04-27T09:42:16.084Z,3.50
2023-04-27T09:45:29.172Z,3.88
2023-04-27T09:48:43.236Z,4.40
2023-04-27T09:51:56.243Z,4.40
2023-04-27T09:55:13.543Z,4.28
2023-04-27T09:59:07.964Z,4.53
2023-04-27T10:02:25.602Z,5.05
2023-04-27T10:06:01.392Z,5.18
2023-04-27T10:09:15.311Z,5.13
2023-04-27T10:12:32.713Z,5.58
2023-04-27T10:19:02.707Z,4.90
2023-04-27T10:22:17.186Z,4.20
2023-04-27T10:25:33.442Z,3.98
2023-04-27T10:28:48.606Z,4.37
2023-04-27T10:32:00.874Z,4.43
2023-04-27T10:35:15.045Z,4.40
2023-04-27T10:38:33.430Z,4.50
2023-04-27T10:41:55.431Z,4.10
2023-04-27T10:45:08.409Z,3.50
2023-04-27T10:48:22.032Z,4.80
2023-04-27T10:51:34.367Z,3.90
2023-04-27T10:54:51.360Z,3.53
2023-04-27T11:01:14.954Z,8.33
2023-04-27T11:04:27.996Z,49.58
2023-04-27T11:07:40.312Z,5.90
2023-04-27T11:10:54.847Z,4.30
2023-04-27T11:14:08.256Z,3.55
2023-04-27T11:17:21.018Z,5.13
2023-04-27T11:20:34.130Z,4.95
2023-04-27T11:23:47.366Z,4.28
2023-04-27T11:27:04.450Z,4.70
2023-04-27T11:30:27.474Z,5.35
2023-04-27T11:33:40.033Z,5.05
2023-04-27T11:40:24.479Z,5.60
2023-04-27T11:46:50.849Z,5.53
2023-04-27T11:50:05.194Z,4.80
2023-04-27T11:53:18.817Z,5.03
2023-04-27T11:56:35.261Z,4.73
2023-04-27T11:59:47.710Z,4.88
2023-04-27T12:02:59.903Z,5.75
2023-04-27T12:06:31.856Z,5.55
2023-04-27T12:09:26.890Z,5.20
2023-04-27T12:12:39.101Z,5.30
2023-04-27T12:15:51.303Z,5.95
2023-04-27T12:19:03.921Z,5.08
2023-04-27T12:22:16.573Z,5.28
2023-04-27T12:25:29.273Z,5.60
2023-04-27T12:28:41.720Z,4.85
2023-04-27T12:31:54.113Z,4.40
2023-04-27T12:35:06.593Z,4.70
2023-04-27T12:38:18.617Z,5.03
2023-04-27T12:41:31.005Z,4.60
2023-04-27T12:44:43.174Z,5.23
2023-04-27T12:48:03.559Z,4.35
2023-04-27T12:54:13.368Z,4.73
2023-04-27T12:57:26.949Z,4.08
2023-04-27T13:00:39.451Z,4.60
2023-04-27T13:03:53.596Z,4.28
2023-04-27T13:07:06.738Z,4.33
2023-04-27T13:10:19.284Z,4.75
2023-04-27T13:13:32.046Z,4.55
2023-04-27T13:16:44.844Z,4.43
2023-04-27T13:19:57.167Z,4.68
2023-04-27T13:23:11.332Z,4.65
2023-04-27T13:26:24.423Z,4.83
2023-04-27T13:29:36.650Z,5.30
2023-04-27T13:32:49.497Z,5.10
2023-04-27T13:36:02.754Z,5.63
2023-04-27T13:39:15.122Z,4.58
2023-04-27T13:42:29.887Z,4.78
2023-04-27T13:45:42.882Z,5.35
2023-04-27T13:48:54.945Z,5.38
2023-04-27T13:52:08.743Z,5.48
2023-04-27T13:55:23.480Z,5.28
2023-04-27T14:07:38.678Z,4.33
2023-04-27T14:10:53.331Z,4.90
2023-04-27T14:14:07.072Z,4.63
2023-04-27T14:17:19.260Z,4.48
2023-04-27T14:20:31.932Z,5.08
2023-04-27T14:56:15.274Z,4.85
2023-04-27T14:59:27.486Z,4.63
2023-04-27T15:02:40.045Z,4.70
2023-04-27T15:05:52.392Z,4.50
2023-04-27T15:09:04.825Z,4.78
2023-04-27T15:12:17.954Z,4.45
2023-04-27T15:15:30.572Z,4.20
2023-04-27T15:18:43.474Z,4.75
2023-04-27T15:21:55.671Z,4.98
2023-04-27T15:25:08.781Z,5.10
2023-04-27T15:28:20.975Z,4.50
2023-04-27T15:31:33.152Z,4.18
2023-04-27T15:34:46.292Z,4.08
2023-04-27T15:37:59.481Z,5.65
2023-04-27T15:41:12.321Z,5.73
2023-04-27T15:44:24.448Z,4.78
2023-04-27T15:47:36.752Z,4.85
2023-04-27T15:50:53.364Z,4.25
2023-04-27T15:54:06.849Z,3.88
2023-04-27T15:57:19.463Z,3.93
2023-04-27T16:00:32.289Z,4.00
2023-04-27T16:03:44.567Z,4.15
2023-04-27T16:06:57.034Z,4.20
2023-04-27T16:10:11.552Z,4.15
2023-04-27T16:13:24.076Z,3.98
2023-04-27T16:16:36.258Z,4.15
2023-04-27T16:19:49.635Z,3.90
2023-04-27T16:23:01.835Z,4.53
2023-04-27T16:26:14.033Z,4.08
2023-04-27T16:29:26.268Z,3.95
2023-04-27T16:32:38.483Z,5.00
2023-04-27T16:35:50.962Z,4.50
2023-04-27T16:39:05.263Z,4.73
2023-04-27T16:42:19.650Z,4.95
2023-04-27T16:45:31.766Z,5.10
2023-04-27T16:48:44.206Z,4.70
2023-04-27T16:51:57.218Z,4.75
2023-04-27T16:55:11.980Z,4.50
2023-04-27T17:01:24.890Z,4.15
2023-04-27T17:04:40.435Z,5.08
2023-04-27T17:07:53.534Z,4.75
2023-04-27T17:11:07.448Z,4.45
2023-04-27T17:14:20.911Z,4.50
2023-04-27T17:17:39.204Z,4.43
2023-04-27T17:20:51.580Z,4.48
2023-04-27T17:24:03.986Z,4.23
2023-04-27T17:27:16.680Z,4.33
2023-04-27T17:30:29.131Z,4.75
2023-04-27T17:33:43.824Z,4.23
2023-04-27T17:36:57.088Z,4.00
2023-04-27T17:40:11.189Z,4.58
2023-04-27T17:43:23.282Z,4.68
2023-04-27T17:46:35.465Z,4.15
2023-04-27T17:49:47.694Z,4.23
2023-04-27T17:52:59.923Z,4.78
2023-04-27T17:56:13.141Z,3.75
2023-04-27T17:59:25.474Z,4.45
2023-04-27T18:02:45.282Z,4.35
2023-04-27T18:05:57.821Z,4.28
2023-04-27T18:09:10.557Z,4.60
2023-04-27T18:12:22.863Z,4.78
2023-04-27T18:15:35.140Z,5.03
2023-04-27T18:18:47.588Z,4.70
2023-04-27T18:21:59.756Z,5.53
2023-04-27T18:25:14.700Z,5.08
2023-04-27T18:28:26.770Z,5.80
2023-04-27T18:31:38.880Z,5.95
2023-04-27T18:34:50.990Z,6.40
2023-04-27T18:38:03.804Z,5.93
2023-04-27T18:41:16.524Z,5.65
2023-04-27T18:44:28.777Z,5.13
2023-04-27T18:47:41.015Z,5.80
2023-04-27T18:50:53.354Z,6.10
2023-04-27T18:57:18.571Z,6.10
2023-04-27T19:00:32.229Z,6.13
2023-04-27T19:03:45.507Z,5.53
2023-04-27T19:06:57.788Z,6.25
2023-04-27T19:10:13.974Z,6.25
2023-04-27T19:13:26.282Z,6.57
2023-04-27T19:16:38.672Z,6.23
2023-04-27T19:19:51.412Z,6.13
2023-04-27T19:23:03.633Z,6.98
2023-04-27T19:26:15.873Z,5.98
2023-04-27T19:29:30.806Z,6.35
2023-04-27T19:32:43.938Z,6.85
2023-04-27T19:35:58.497Z,6.43
2023-04-27T19:39:11.487Z,6.40
2023-04-27T19:42:25.258Z,6.35
2023-04-27T19:45:38.997Z,5.88
2023-04-27T19:48:51.508Z,6.50
2023-04-27T19:52:04.032Z,6.83
2023-04-27T19:55:17.667Z,6.48
2023-04-27T19:58:29.842Z,9.15
2023-04-27T20:01:42.455Z,7.50
2023-04-27T20:04:54.994Z,7.65
2023-04-27T20:08:08.008Z,7.20
2023-04-27T20:11:20.922Z,7.30
2023-04-27T20:14:35.426Z,6.80
2023-04-27T20:17:47.822Z,6.73
2023-04-27T20:21:03.427Z,7.55
2023-04-27T20:24:16.628Z,6.78
2023-04-27T20:27:29.471Z,7.98
2023-04-27T20:30:41.397Z,8.33
2023-04-27T20:33:54.051Z,8.30
2023-04-27T20:37:06.210Z,9.13
2023-04-27T20:40:21.949Z,7.53
2023-04-27T20:43:34.095Z,8.28
2023-04-27T20:46:46.484Z,8.00
2023-04-27T20:49:58.580Z,8.10
2023-04-27T20:53:10.690Z,8.13
2023-04-27T20:56:23.179Z,8.25
2023-04-27T20:59:35.671Z,8.40
2023-04-27T21:02:48.701Z,8.85
2023-04-27T21:06:01.030Z,9.40
2023-04-27T21:09:13.304Z,8.88
2023-04-27T21:12:25.654Z,9.25
2023-04-27T21:15:37.989Z,8.68
2023-04-27T21:18:50.163Z,9.20
2023-04-27T21:22:02.686Z,10.35
2023-04-27T21:25:16.527Z,10.38
2023-04-27T21:28:28.642Z,10.23
2023-04-27T21:31:41.176Z,10.80
2023-04-27T21:34:53.266Z,10.68
2023-04-27T21:38:05.667Z,9.83
2023-04-27T21:41:17.777Z,9.40
2023-04-27T21:44:29.966Z,9.45
2023-04-27T21:47:42.399Z,8.98
2023-04-27T21:50:54.790Z,9.15
2023-04-27T21:54:06.865Z,8.98
2023-04-27T21:57:20.034Z,9.85
2023-04-27T22:00:33.730Z,10.63
2023-04-27T22:03:46.034Z,10.43
2023-04-27T22:06:58.396Z,10.40
2023-04-27T22:10:12.341Z,9.68
2023-04-27T22:13:24.439Z,9.58
2023-04-27T22:16:36.913Z,9.43
2023-04-27T22:19:49.402Z,33.58
2023-04-27T22:23:01.769Z,11.23
2023-04-27T22:26:14.018Z,11.55
2023-04-27T22:29:26.091Z,9.83
2023-04-27T22:32:38.534Z,10.38
2023-04-27T22:35:51.009Z,10.15
2023-04-27T22:39:03.288Z,9.73
2023-04-27T22:42:15.432Z,10.28
2023-04-27T22:45:27.419Z,10.08
2023-04-27T22:48:39.562Z,10.63
2023-04-27T22:51:51.848Z,12.10
2023-04-27T22:55:03.944Z,11.55
2023-04-27T22:58:15.873Z,11.18
2023-04-27T23:01:27.832Z,10.80
2023-04-27T23:04:41.476Z,10.63
2023-04-27T23:07:54.104Z,11.45
2023-04-27T23:11:06.400Z,11.28
2023-04-27T23:14:18.514Z,11.08
2023-04-27T23:17:32.032Z,10.98
2023-04-27T23:20:44.270Z,11.90
2023-04-27T23:23:56.320Z,13.50
2023-04-27T23:27:08.283Z,16.63
2023-04-27T23:30:21.292Z,14.60
2023-04-27T23:33:33.799Z,13.48
2023-04-27T23:36:45.967Z,12.75
2023-04-27T23:39:57.905Z,12.35
2023-04-27T23:43:10.500Z,14.50
2023-04-27T23:46:22.695Z,14.35
2023-04-27T23:49:34.776Z,15.05
2023-04-27T23:52:46.732Z,13.55
2023-04-27T23:55:58.845Z,14.50
2023-04-27T23:59:11.363Z,14.65
